createdAt,value
2018-08-06T00:01:06.534Z,57.66
2018-08-06T00:03:35.389Z,57.88
2018-08-06T00:06:04.305Z,58.11
2018-08-06T00:08:33.157Z,57.49
2018-08-06T00:11:02.050Z,57.95
2018-08-06T00:13:30.921Z,58.50
2018-08-06T00:15:59.823Z,58.08
2018-08-06T00:18:28.688Z,58.23
2018-08-06T00:20:57.549Z,58.32
2018-08-06T00:23:28.476Z,58.13
2018-08-06T00:25:57.340Z,59.18
2018-08-06T00:28:26.197Z,58.65
2018-08-06T00:30:55.050Z,58.58
2018-08-06T00:33:34.074Z,58.76
2018-08-06T00:36:02.926Z,58.94
2018-08-06T00:38:31.843Z,58.28
2018-08-06T00:41:05.217Z,58.94
2018-08-06T00:43:34.096Z,58.66
2018-08-06T00:46:02.976Z,58.94
2018-08-06T00:48:45.936Z,58.91
2018-08-06T00:51:14.783Z,58.92
2018-08-06T00:53:43.692Z,58.73
2018-08-06T00:56:12.574Z,58.73
2018-08-06T00:58:51.595Z,59.15
2018-08-06T01:01:20.483Z,58.80
2018-08-06T01:03:49.366Z,59.39
2018-08-06T01:06:18.239Z,59.68
2018-08-06T01:08:47.134Z,60.22
2018-08-06T01:11:16.048Z,60.00
2018-08-06T01:13:44.930Z,59.71
2018-08-06T01:16:14.066Z,60.58
2018-08-06T01:18:42.924Z,60.54
2018-08-06T01:21:11.841Z,59.70
2018-08-06T01:23:40.711Z,60.35
2018-08-06T01:26:09.678Z,59.83
2018-08-06T01:28:38.560Z,60.47
2018-08-06T01:31:07.519Z,60.86
2018-08-06T01:33:36.443Z,60.86
2018-08-06T01:36:05.421Z,61.03
2018-08-06T01:38:34.312Z,61.72
2018-08-06T01:41:03.198Z,61.63
2018-08-06T01:46:44.734Z,61.34
2018-08-06T01:49:13.640Z,61.61
2018-08-06T01:51:42.508Z,62.04
2018-08-06T01:54:11.408Z,61.52
2018-08-06T01:56:40.704Z,62.27
2018-08-06T01:59:09.568Z,61.83
2018-08-06T02:01:38.447Z,61.74
2018-08-06T02:04:12.476Z,61.13
2018-08-06T02:06:41.404Z,61.90
2018-08-06T02:09:10.293Z,61.74
2018-08-06T02:11:39.198Z,61.88
2018-08-06T02:14:08.113Z,61.70
2018-08-06T02:16:36.984Z,61.74
2018-08-06T02:19:05.883Z,61.49
2018-08-06T02:21:34.756Z,61.82
2018-08-06T02:24:03.618Z,62.17
2018-08-06T02:26:32.492Z,61.87
2018-08-06T02:29:01.399Z,62.06
2018-08-06T02:34:24.919Z,62.23
2018-08-06T02:36:53.757Z,62.49
2018-08-06T02:39:22.626Z,62.63
2018-08-06T02:41:51.513Z,63.00
2018-08-06T02:44:20.417Z,63.03
2018-08-06T02:46:49.325Z,62.80
2018-08-06T02:49:18.199Z,62.86
2018-08-06T02:51:58.097Z,64.05
2018-08-06T02:54:27.016Z,62.97
2018-08-06T02:56:58.362Z,63.00
2018-08-06T02:59:27.212Z,63.39
2018-08-06T03:01:56.127Z,63.93
2018-08-06T03:04:25.041Z,64.05
2018-08-06T03:06:53.920Z,63.73
2018-08-06T03:09:22.807Z,63.95
2018-08-06T03:11:51.878Z,64.14
2018-08-06T03:14:20.743Z,64.13
2018-08-06T03:16:49.653Z,64.07
2018-08-06T03:19:18.520Z,63.87
2018-08-06T03:21:47.443Z,64.96
2018-08-06T03:24:16.335Z,64.63
2018-08-06T03:26:45.250Z,65.05
2018-08-06T03:29:14.140Z,65.41
2018-08-06T03:31:46.855Z,65.11
2018-08-06T03:34:15.728Z,65.61
2018-08-06T03:36:44.596Z,65.66
2018-08-06T03:39:17.639Z,65.91
2018-08-06T03:41:46.526Z,65.76
2018-08-06T03:44:15.443Z,65.09
2018-08-06T03:46:44.285Z,65.25
2018-08-06T03:52:20.880Z,65.62
2018-08-06T03:54:49.796Z,65.02
2018-08-06T03:57:18.678Z,64.86
2018-08-06T03:59:47.544Z,64.22
2018-08-06T04:02:16.440Z,64.25
2018-08-06T04:04:45.342Z,64.72
2018-08-06T04:07:17.431Z,65.08
2018-08-06T04:09:46.300Z,65.30
2018-08-06T04:12:15.200Z,65.09
2018-08-06T04:14:44.056Z,64.39
2018-08-06T04:17:12.933Z,64.14
2018-08-06T04:19:41.837Z,64.36
2018-08-06T04:22:10.712Z,64.78
2018-08-06T04:24:43.560Z,64.80
2018-08-06T04:27:12.452Z,64.73
2018-08-06T04:29:41.315Z,64.04
2018-08-06T04:32:15.628Z,63.92
2018-08-06T04:34:44.488Z,64.33
2018-08-06T04:37:13.356Z,63.95
2018-08-06T04:39:42.255Z,64.37
2018-08-06T04:42:14.392Z,64.51
2018-08-06T04:44:43.282Z,64.99
2018-08-06T04:47:12.158Z,64.48
2018-08-06T04:49:41.032Z,64.51
2018-08-06T04:52:13.021Z,64.74
2018-08-06T04:54:41.936Z,64.36
2018-08-06T04:57:10.807Z,65.49
2018-08-06T04:59:39.706Z,65.46
2018-08-06T05:02:08.548Z,64.45
2018-08-06T05:04:37.453Z,64.57
2018-08-06T05:07:06.432Z,64.35
2018-08-06T05:09:41.422Z,64.62
2018-08-06T05:12:10.368Z,64.91
2018-08-06T05:14:40.297Z,64.52
2018-08-06T05:17:09.322Z,64.25
2018-08-06T05:19:38.678Z,64.79
2018-08-06T05:22:07.693Z,64.77
2018-08-06T05:24:36.570Z,64.60
2018-08-06T05:27:05.543Z,64.17
2018-08-06T05:29:34.515Z,64.54
2018-08-06T05:32:03.398Z,64.80
2018-08-06T05:34:34.290Z,64.67
2018-08-06T05:37:03.228Z,64.38
2018-08-06T05:39:32.097Z,64.45
2018-08-06T05:42:08.981Z,63.98
2018-08-06T05:44:37.856Z,64.02
2018-08-06T05:47:06.742Z,63.51
2018-08-06T05:49:35.616Z,63.97
2018-08-06T05:52:04.505Z,63.75
2018-08-06T05:54:33.398Z,63.58
2018-08-06T05:57:02.245Z,64.25
2018-08-06T05:59:31.132Z,64.44
2018-08-06T06:01:59.991Z,63.87
2018-08-06T06:04:28.876Z,63.75
2018-08-06T06:06:57.911Z,63.07
2018-08-06T06:09:26.788Z,62.61
2018-08-06T06:12:05.288Z,63.11
2018-08-06T06:14:34.180Z,61.85
2018-08-06T06:17:03.051Z,60.81
2018-08-06T06:19:31.922Z,61.16
2018-08-06T06:22:00.797Z,60.36
2018-08-06T06:24:33.111Z,60.27
2018-08-06T06:27:02.005Z,60.03
2018-08-06T06:29:30.878Z,60.55
2018-08-06T06:31:59.898Z,60.14
2018-08-06T06:34:41.162Z,59.52
2018-08-06T06:37:09.965Z,57.43
2018-08-06T06:39:38.855Z,56.99
2018-08-06T06:42:07.723Z,57.21
2018-08-06T06:44:42.924Z,55.67
2018-08-06T06:47:11.798Z,55.78
2018-08-06T06:49:40.694Z,56.19
2018-08-06T06:52:13.164Z,55.49
2018-08-06T06:54:42.064Z,55.39
2018-08-06T06:57:10.990Z,56.14
2018-08-06T06:59:39.857Z,55.83
2018-08-06T07:02:08.793Z,54.74
2018-08-06T07:04:37.680Z,53.86
2018-08-06T07:07:06.652Z,52.95
2018-08-06T07:09:35.795Z,53.92
2018-08-06T07:12:04.860Z,52.48
2018-08-06T07:14:33.833Z,52.75
2018-08-06T07:17:02.712Z,52.00
2018-08-06T07:19:31.568Z,51.02
2018-08-06T07:22:03.655Z,51.10
2018-08-06T07:24:32.584Z,50.54
2018-08-06T07:27:01.472Z,50.63
2018-08-06T07:29:30.341Z,51.03
2018-08-06T07:31:59.244Z,51.35
2018-08-06T07:34:28.375Z,50.89
2018-08-06T07:36:57.472Z,50.77
2018-08-06T07:39:26.383Z,50.43
2018-08-06T07:42:20.034Z,50.27
2018-08-06T07:44:48.900Z,49.93
2018-08-06T07:47:17.780Z,49.48
2018-08-06T07:49:46.796Z,50.24
2018-08-06T07:52:35.036Z,50.44
2018-08-06T07:55:04.424Z,50.70
2018-08-06T07:57:33.339Z,50.62
2018-08-06T08:00:02.240Z,50.27
2018-08-06T08:02:31.188Z,50.46
2018-08-06T08:05:00.099Z,49.89
2018-08-06T08:07:28.960Z,49.70
2018-08-06T08:09:57.844Z,49.06
2018-08-06T08:12:26.749Z,47.54
2018-08-06T08:14:55.702Z,48.33
2018-08-06T08:17:24.557Z,47.88
2018-08-06T08:19:53.544Z,48.01
2018-08-06T08:22:22.364Z,48.00
2018-08-06T08:24:51.254Z,48.09
2018-08-06T08:27:32.730Z,48.01
2018-08-06T08:30:01.613Z,46.24
2018-08-06T08:32:30.480Z,44.91
2018-08-06T08:34:59.344Z,44.82
2018-08-06T08:37:28.246Z,45.15
2018-08-06T08:39:57.192Z,45.11
2018-08-06T08:42:26.076Z,45.08
2018-08-06T08:44:54.952Z,44.99
2018-08-06T08:47:23.880Z,45.49
2018-08-06T08:49:52.806Z,44.71
2018-08-06T08:52:21.758Z,44.21
2018-08-06T08:54:50.948Z,43.92
2018-08-06T08:57:19.810Z,44.02
2018-08-06T08:59:48.732Z,43.24
2018-08-06T09:02:17.630Z,42.76
2018-08-06T09:04:46.542Z,43.28
2018-08-06T09:07:15.514Z,42.76
2018-08-06T09:09:44.430Z,42.54
2018-08-06T09:12:13.326Z,42.55
2018-08-06T09:14:42.201Z,42.23
2018-08-06T09:17:11.072Z,42.04
2018-08-06T09:19:39.963Z,42.82
2018-08-06T09:22:08.856Z,42.48
2018-08-06T09:24:37.813Z,41.94
2018-08-06T09:27:06.736Z,41.75
2018-08-06T09:29:35.600Z,41.76
2018-08-06T09:32:04.528Z,41.98
2018-08-06T09:34:33.392Z,41.77
2018-08-06T09:37:02.265Z,41.56
2018-08-06T09:39:31.117Z,40.78
2018-08-06T09:42:00.013Z,41.30
2018-08-06T09:44:28.971Z,41.65
2018-08-06T09:46:58.013Z,41.07
2018-08-06T09:49:26.849Z,40.76
2018-08-06T09:51:55.745Z,41.00
2018-08-06T09:54:24.631Z,41.46
2018-08-06T09:56:53.520Z,40.88
2018-08-06T09:59:22.381Z,40.72
2018-08-06T10:01:55.459Z,40.84
2018-08-06T10:04:28.579Z,40.48
2018-08-06T10:06:57.697Z,40.59
2018-08-06T10:09:26.583Z,39.88
2018-08-06T10:11:55.469Z,39.57
2018-08-06T10:14:24.316Z,39.39
2018-08-06T10:16:53.183Z,39.04
2018-08-06T10:19:22.203Z,38.86
2018-08-06T10:21:50.952Z,38.83
2018-08-06T10:24:19.817Z,39.22
2018-08-06T10:26:48.689Z,39.26
2018-08-06T10:29:17.564Z,38.55
2018-08-06T10:31:46.450Z,39.03
2018-08-06T10:34:15.392Z,38.92
2018-08-06T10:36:44.283Z,38.32
2018-08-06T10:39:13.106Z,37.87
2018-08-06T10:41:41.968Z,37.47
2018-08-06T10:44:11.109Z,37.76
2018-08-06T10:46:40.036Z,37.96
2018-08-06T10:49:08.867Z,37.17
2018-08-06T10:51:37.746Z,37.32
2018-08-06T10:54:06.616Z,36.90
2018-08-06T10:56:35.494Z,37.33
2018-08-06T10:59:04.331Z,37.20
2018-08-06T11:01:33.202Z,37.39
2018-08-06T11:04:02.047Z,37.34
2018-08-06T11:09:24.806Z,36.53
2018-08-06T11:11:53.711Z,36.19
2018-08-06T11:14:22.629Z,36.21
2018-08-06T11:16:51.518Z,35.03
2018-08-06T11:19:20.397Z,34.26
2018-08-06T11:21:49.239Z,34.55
2018-08-06T11:27:14.715Z,34.09
2018-08-06T11:29:43.616Z,34.11
2018-08-06T11:32:12.460Z,34.15
2018-08-06T11:34:41.339Z,34.86
2018-08-06T11:37:21.875Z,34.60
2018-08-06T11:39:50.751Z,32.82
2018-08-06T11:42:19.617Z,33.08
2018-08-06T11:44:48.484Z,33.05
2018-08-06T11:47:17.354Z,32.94
2018-08-06T11:49:46.274Z,33.48
2018-08-06T11:52:15.139Z,33.05
2018-08-06T11:54:43.997Z,31.76
2018-08-06T11:57:12.859Z,31.37
2018-08-06T11:59:41.711Z,32.17
2018-08-06T12:02:10.619Z,32.12
2018-08-06T12:04:39.503Z,31.09
2018-08-06T12:07:08.370Z,31.08
2018-08-06T12:09:37.261Z,30.62
2018-08-06T12:12:19.401Z,30.75
2018-08-06T12:14:48.277Z,31.03
2018-08-06T12:17:17.137Z,30.36
2018-08-06T12:19:46.084Z,30.08
2018-08-06T12:22:14.953Z,28.94
2018-08-06T12:24:43.877Z,29.22
2018-08-06T12:27:12.954Z,29.81
2018-08-06T12:29:42.037Z,27.58
2018-08-06T12:32:28.765Z,28.15
2018-08-06T12:34:57.627Z,27.71
2018-08-06T12:37:26.478Z,27.50
2018-08-06T12:39:55.338Z,27.69
2018-08-06T12:42:24.199Z,28.02
2018-08-06T12:44:53.131Z,28.31
2018-08-06T12:47:21.994Z,27.99
2018-08-06T12:49:50.843Z,28.39
2018-08-06T12:52:19.695Z,29.13
2018-08-06T12:55:08.948Z,29.44
2018-08-06T12:57:38.134Z,29.34
2018-08-06T13:00:13.713Z,28.86
2018-08-06T13:02:42.617Z,28.55
2018-08-06T13:05:12.147Z,28.34
2018-08-06T13:07:41.630Z,27.41
2018-08-06T13:10:10.558Z,27.66
2018-08-06T13:12:39.986Z,28.07
2018-08-06T13:15:10.727Z,28.29
2018-08-06T13:17:40.019Z,27.97
2018-08-06T13:20:09.293Z,27.19
2018-08-06T13:22:38.130Z,27.21
2018-08-06T13:25:12.030Z,26.97
2018-08-06T13:27:40.931Z,27.15
2018-08-06T13:30:13.123Z,26.95
2018-08-06T13:32:43.196Z,26.85
2018-08-06T13:35:13.513Z,27.03
2018-08-06T13:37:42.861Z,25.91
2018-08-06T13:40:12.582Z,26.36
2018-08-06T13:42:41.967Z,26.40
2018-08-06T13:45:27.053Z,25.92
2018-08-06T13:47:56.315Z,25.42
2018-08-06T13:50:25.615Z,25.40
2018-08-06T13:52:54.972Z,24.60
2018-08-06T13:55:24.270Z,24.67
2018-08-06T13:57:54.526Z,24.84
2018-08-06T14:00:24.050Z,24.79
2018-08-06T14:02:53.465Z,26.01
2018-08-06T14:05:22.872Z,26.23
2018-08-06T14:08:11.148Z,26.48
2018-08-06T14:10:40.483Z,25.73
2018-08-06T14:13:10.109Z,26.19
2018-08-06T14:15:38.990Z,25.85
2018-08-06T14:18:08.129Z,24.70
2018-08-06T14:20:37.002Z,24.71
2018-08-06T14:23:05.855Z,25.25
2018-08-06T14:25:34.688Z,24.81
2018-08-06T14:28:03.557Z,24.86
2018-08-06T14:30:32.395Z,24.47
2018-08-06T14:33:01.257Z,24.16
2018-08-06T14:35:30.124Z,24.24
2018-08-06T14:38:12.115Z,24.57
2018-08-06T14:40:40.999Z,24.26
2018-08-06T14:43:09.533Z,24.48
2018-08-06T14:45:42.287Z,24.38
2018-08-06T14:48:11.150Z,25.04
2018-08-06T14:50:40.039Z,24.05
2018-08-06T14:53:10.905Z,23.92
2018-08-06T14:55:39.789Z,24.29
2018-08-06T14:58:08.651Z,24.08
2018-08-06T15:00:37.555Z,24.42
2018-08-06T15:03:06.505Z,24.89
2018-08-06T15:05:35.392Z,24.76
2018-08-06T15:08:04.236Z,25.08
2018-08-06T15:10:33.111Z,25.39
2018-08-06T15:13:01.976Z,25.58
2018-08-06T15:15:30.811Z,25.78
2018-08-06T15:17:59.666Z,25.29
2018-08-06T15:20:28.514Z,25.71
2018-08-06T15:22:57.419Z,25.01
2018-08-06T15:25:26.288Z,25.68
2018-08-06T15:27:55.134Z,26.12
2018-08-06T15:30:23.987Z,26.01
2018-08-06T15:32:52.908Z,26.22
2018-08-06T15:35:21.781Z,25.82
2018-08-06T15:37:51.305Z,25.77
2018-08-06T15:40:20.847Z,26.19
2018-08-06T15:43:10.113Z,26.31
2018-08-06T15:45:38.983Z,26.49
2018-08-06T15:48:07.884Z,26.68
2018-08-06T15:50:36.732Z,25.68
2018-08-06T15:53:06.619Z,25.90
2018-08-06T15:55:35.508Z,26.43
2018-08-06T15:58:04.390Z,25.77
2018-08-06T16:00:33.262Z,27.16
2018-08-06T16:03:10.482Z,27.23
2018-08-06T16:05:39.323Z,25.76
2018-08-06T16:08:08.198Z,25.33
2018-08-06T16:10:37.047Z,25.06
2018-08-06T16:13:19.557Z,25.49
2018-08-06T16:15:48.414Z,25.96
2018-08-06T16:18:17.512Z,25.87
2018-08-06T16:20:46.319Z,25.81
2018-08-06T16:23:15.206Z,25.79
2018-08-06T16:25:44.040Z,25.64
2018-08-06T16:28:12.921Z,25.78
2018-08-06T16:30:41.785Z,25.62
2018-08-06T16:33:10.679Z,25.62
2018-08-06T16:35:39.724Z,25.75
2018-08-06T16:38:08.609Z,26.20
2018-08-06T16:40:37.465Z,26.09
2018-08-06T16:43:06.351Z,26.54
2018-08-06T16:45:35.191Z,25.99
2018-08-06T16:48:04.057Z,26.20
2018-08-06T16:50:32.921Z,26.38
2018-08-06T16:53:01.813Z,26.51
2018-08-06T16:58:37.259Z,26.61
2018-08-06T17:01:06.404Z,26.93
2018-08-06T17:03:36.293Z,27.13
2018-08-06T17:06:05.409Z,26.64
2018-08-06T17:08:34.309Z,26.55
2018-08-06T17:11:03.213Z,26.51
2018-08-06T17:13:56.609Z,27.18
2018-08-06T17:16:25.535Z,27.03
2018-08-06T17:18:54.383Z,26.94
2018-08-06T17:21:23.257Z,26.52
2018-08-06T17:23:52.153Z,27.46
2018-08-06T17:26:20.967Z,27.60
2018-08-06T17:28:49.833Z,27.51
2018-08-06T17:31:18.681Z,26.59
2018-08-06T17:33:53.379Z,26.77
2018-08-06T17:36:22.240Z,26.57
2018-08-06T17:38:51.074Z,26.42
2018-08-06T17:41:19.982Z,26.49
2018-08-06T17:43:48.838Z,26.64
2018-08-06T17:46:17.701Z,27.15
2018-08-06T17:48:48.567Z,26.84
2018-08-06T17:51:17.437Z,27.33
2018-08-06T17:53:46.309Z,27.38
2018-08-06T17:56:16.263Z,28.43
2018-08-06T17:58:45.130Z,28.25
2018-08-06T18:01:13.973Z,27.73
2018-08-06T18:03:42.838Z,27.67
2018-08-06T18:06:28.407Z,28.86
2018-08-06T18:08:57.297Z,30.25
2018-08-06T18:11:26.149Z,30.21
2018-08-06T18:13:55.036Z,30.29
2018-08-06T18:16:23.894Z,31.19
2018-08-06T18:18:52.761Z,30.79
2018-08-06T18:21:21.598Z,31.25
2018-08-06T18:23:50.455Z,31.22
2018-08-06T18:26:19.316Z,31.64
2018-08-06T18:28:48.165Z,31.64
2018-08-06T18:31:17.105Z,32.57
2018-08-06T18:33:45.943Z,33.17
2018-08-06T18:36:15.049Z,34.26
2018-08-06T18:38:43.982Z,34.48
2018-08-06T18:41:12.815Z,35.21
2018-08-06T18:43:41.674Z,35.47
2018-08-06T18:46:10.527Z,35.65
2018-08-06T18:48:39.385Z,36.00
2018-08-06T18:51:08.241Z,36.19
2018-08-06T18:53:37.115Z,35.97
2018-08-06T18:56:05.967Z,36.68
2018-08-06T18:58:34.829Z,36.45
2018-08-06T19:01:03.702Z,36.47
2018-08-06T19:03:40.403Z,36.57
2018-08-06T19:06:09.302Z,36.86
2018-08-06T19:08:38.131Z,37.20
2018-08-06T19:11:23.243Z,38.08
2018-08-06T19:13:57.427Z,38.44
2018-08-06T19:16:26.321Z,38.16
2018-08-06T19:19:00.475Z,38.35
2018-08-06T19:21:37.154Z,38.08
2018-08-06T19:24:11.356Z,38.32
2018-08-06T19:26:40.211Z,38.40
2018-08-06T19:29:09.072Z,37.84
2018-08-06T19:31:38.034Z,38.71
2018-08-06T19:34:06.940Z,38.27
2018-08-06T19:36:41.102Z,38.56
2018-08-06T19:39:10.737Z,38.39
2018-08-06T19:41:49.753Z,38.87
2018-08-06T19:44:18.595Z,38.90
2018-08-06T19:46:47.461Z,39.16
2018-08-06T19:49:21.585Z,38.67
2018-08-06T19:51:56.341Z,39.13
2018-08-06T19:54:25.201Z,39.49
2018-08-06T19:56:54.063Z,39.48
2018-08-06T19:59:22.984Z,39.75
2018-08-06T20:01:51.803Z,40.07
2018-08-06T20:04:20.653Z,39.71
2018-08-06T20:06:49.549Z,39.93
2018-08-06T20:09:18.434Z,40.03
2018-08-06T20:11:47.309Z,40.30
2018-08-06T20:14:16.162Z,40.44
2018-08-06T20:16:51.057Z,40.64
2018-08-06T20:19:19.892Z,39.88
2018-08-06T20:21:48.779Z,40.09
2018-08-06T20:24:17.640Z,40.10
2018-08-06T20:26:46.471Z,40.53
2018-08-06T20:29:15.337Z,40.63
2018-08-06T20:31:44.179Z,40.38
2018-08-06T20:34:13.048Z,40.67
2018-08-06T20:36:41.919Z,40.39
2018-08-06T20:39:10.770Z,40.72
2018-08-06T20:41:39.606Z,40.45
2018-08-06T20:44:08.518Z,40.82
2018-08-06T20:46:37.373Z,41.26
2018-08-06T20:49:06.247Z,41.42
2018-08-06T20:51:35.286Z,41.35
2018-08-06T20:54:04.171Z,41.49
2018-08-06T20:56:33.027Z,41.57
2018-08-06T20:59:02.149Z,41.21
2018-08-06T21:01:31.022Z,41.58
2018-08-06T21:03:59.877Z,41.72
2018-08-06T21:06:33.867Z,42.16
2018-08-06T21:09:02.738Z,42.06
2018-08-06T21:11:31.591Z,42.37
2018-08-06T21:14:00.545Z,42.38
2018-08-06T21:16:29.427Z,42.19
2018-08-06T21:19:01.695Z,41.58
2018-08-06T21:21:30.563Z,41.50
2018-08-06T21:23:59.411Z,41.71
2018-08-06T21:26:33.417Z,41.67
2018-08-06T21:29:02.247Z,41.67
2018-08-06T21:31:31.113Z,41.76
2018-08-06T21:33:59.977Z,41.92
2018-08-06T21:36:28.811Z,41.47
2018-08-06T21:39:06.003Z,41.71
2018-08-06T21:41:34.805Z,42.06
2018-08-06T21:44:04.043Z,41.78
2018-08-06T21:46:33.090Z,41.73
2018-08-06T21:49:07.549Z,42.06
2018-08-06T21:51:36.402Z,42.04
2018-08-06T21:54:05.257Z,41.38
2018-08-06T21:56:34.121Z,41.75
2018-08-06T21:59:02.977Z,42.15
2018-08-06T22:01:31.820Z,41.75
2018-08-06T22:04:04.999Z,41.76
2018-08-06T22:06:33.877Z,41.49
2018-08-06T22:09:02.703Z,41.90
2018-08-06T22:11:31.572Z,42.46
2018-08-06T22:14:00.431Z,42.27
2018-08-06T22:16:29.397Z,42.48
2018-08-06T22:18:58.324Z,42.84
2018-08-06T22:21:27.122Z,42.72
2018-08-06T22:23:55.973Z,42.71
2018-08-06T22:26:24.814Z,42.74
2018-08-06T22:28:53.677Z,42.97
2018-08-06T22:31:32.103Z,43.22
2018-08-06T22:34:01.025Z,42.67
2018-08-06T22:36:29.809Z,43.50
2018-08-06T22:38:59.507Z,43.29
2018-08-06T22:41:37.014Z,43.02
2018-08-06T22:44:06.199Z,43.29
2018-08-06T22:46:35.043Z,43.80
2018-08-06T22:49:03.906Z,43.65
2018-08-06T22:51:39.452Z,43.76
2018-08-06T22:54:08.329Z,43.73
2018-08-06T22:56:37.208Z,43.92
2018-08-06T22:59:19.570Z,43.96
2018-08-06T23:01:48.602Z,44.20
2018-08-06T23:04:17.424Z,44.31
2018-08-06T23:06:46.285Z,44.48
2018-08-06T23:09:15.229Z,44.49
2018-08-06T23:11:43.998Z,44.30
2018-08-06T23:14:12.855Z,44.68
2018-08-06T23:16:41.701Z,44.47
2018-08-06T23:19:10.574Z,44.21
2018-08-06T23:21:39.414Z,44.83
2018-08-06T23:24:12.031Z,44.36
2018-08-06T23:26:40.877Z,44.33
2018-08-06T23:29:09.734Z,44.44
2018-08-06T23:31:44.470Z,44.93
2018-08-06T23:34:13.343Z,44.68
2018-08-06T23:36:42.245Z,45.09
2018-08-06T23:39:11.255Z,44.71
2018-08-06T23:44:37.025Z,44.53
2018-08-06T23:47:06.422Z,44.65
2018-08-06T23:49:35.663Z,44.24
2018-08-06T23:52:05.307Z,44.71
2018-08-06T23:54:42.718Z,44.63
2018-08-06T23:57:11.599Z,44.78
2018-08-06T23:59:40.457Z,45.19
